»·PEaware :: QXE2972 KPDX-KBOI

QXE2972 :: KPDX-KBOI

FLIGHT INFORMATION

Flight Status: Arrived
Operator:
Horizon Air
More flights by this operator :: More flights under this callsign
Pilot: Christian A. (580)
Aircraft: DEHAVILLAND DASH 8 400
(DH8D)
More flights by this aircraft type
Origin: KPDX Portland Intl
United States
Destination: KBOI Boise Air Terminal/Gowen
United States
More flights between these airports :: More routes between these airports
Route: WHAMY4 IMB HOSTS PARMO3
File this flight plan on PilotEdge
Remarks:
Altitude:
(Current/Filed)
25,000ft
Speed:
(Current/Filed)
360kts
Departed: 25-Jan-18 08:59 PM
Arrived: 25-Jan-18 09:56 PM
Distance/Time
Traveled:
298nm/0:57
Distance/Time
To Go:
Arrived

Flight Plot

Page will automatically refresh every two minutes.

Flight plan parsing failed; only flown route is shown


Map Options




Map Legend


Flown Route
Filed Route
Departure Airport
Arrival Airport
Navaid (VOR, NDB)
Fix

Horizontal Profiles

Position Reports

Time Latitude Longitude Heading Altitude Ground
Speed
25-Jan-18 19:36 45.591474 -122.594612 205 25ft 0kts
25-Jan-18 19:37 45.591474 -122.594612 205 25ft 0kts
25-Jan-18 19:38 45.591474 -122.594612 205 25ft 0kts
25-Jan-18 19:39 45.591474 -122.594612 205 25ft 0kts
25-Jan-18 19:40 45.591474 -122.594612 205 25ft 0kts
25-Jan-18 19:41 45.591474 -122.594612 205 25ft 0kts
25-Jan-18 19:42 45.591474 -122.594612 205 25ft 0kts
25-Jan-18 19:43 45.591474 -122.594612 205 25ft 0kts
25-Jan-18 19:44 45.591474 -122.594612 205 25ft 0kts
25-Jan-18 19:45 45.591474 -122.594612 205 25ft 0kts
25-Jan-18 19:46 45.591474 -122.594612 205 25ft 0kts
25-Jan-18 19:47 45.591474 -122.594612 205 25ft 0kts
25-Jan-18 19:48 45.591474 -122.594612 205 25ft 0kts
25-Jan-18 19:49 45.591474 -122.594612 205 25ft 0kts
25-Jan-18 19:50 45.591474 -122.594612 205 25ft 0kts
25-Jan-18 19:51 45.591474 -122.594612 205 25ft 0kts
25-Jan-18 19:52 45.591474 -122.594612 205 25ft 0kts
25-Jan-18 19:53 45.591474 -122.594612 205 25ft 0kts
25-Jan-18 19:54 45.591474 -122.594612 205 25ft 0kts
25-Jan-18 19:55 45.591474 -122.594612 205 25ft 0kts
25-Jan-18 19:56 45.591474 -122.594612 205 25ft 0kts
25-Jan-18 19:57 45.591474 -122.594612 205 25ft 0kts
25-Jan-18 19:58 45.591474 -122.594612 205 25ft 0kts
25-Jan-18 19:59 45.591474 -122.594612 205 25ft 0kts
25-Jan-18 20:00 45.591474 -122.594612 205 25ft 0kts
25-Jan-18 20:01 45.591474 -122.594612 205 25ft 0kts
25-Jan-18 20:02 45.591474 -122.594612 205 25ft 0kts
25-Jan-18 20:03 45.591474 -122.594612 205 25ft 0kts
25-Jan-18 20:04 45.591474 -122.594612 205 25ft 0kts
25-Jan-18 20:05 45.591474 -122.594612 205 25ft 0kts
25-Jan-18 20:06 45.591474 -122.594612 205 25ft 0kts
25-Jan-18 20:07 45.591474 -122.594612 205 25ft 0kts
25-Jan-18 20:08 45.591474 -122.594612 205 25ft 0kts
25-Jan-18 20:09 45.591474 -122.594612 205 25ft 0kts
25-Jan-18 20:10 45.591474 -122.594612 205 25ft 0kts
25-Jan-18 20:11 45.591474 -122.594612 205 25ft 0kts
25-Jan-18 20:12 45.591474 -122.594612 205 25ft 0kts
25-Jan-18 20:13 45.591474 -122.594612 205 25ft 0kts
25-Jan-18 20:14 45.591474 -122.594612 205 25ft 0kts
25-Jan-18 20:15 45.591474 -122.594612 205 25ft 0kts
25-Jan-18 20:16 45.591474 -122.594612 205 25ft 0kts
25-Jan-18 20:17 45.591474 -122.594612 205 25ft 0kts
25-Jan-18 20:18 45.591474 -122.594612 205 25ft 0kts
25-Jan-18 20:19 45.591474 -122.594612 205 25ft 0kts
25-Jan-18 20:20 45.591474 -122.594612 205 25ft 0kts
25-Jan-18 20:21 45.591474 -122.594612 205 25ft 0kts
25-Jan-18 20:22 45.591474 -122.594612 205 25ft 0kts
25-Jan-18 20:23 45.591474 -122.594612 205 25ft 0kts
25-Jan-18 20:24 45.591474 -122.594612 205 25ft 0kts
25-Jan-18 20:25 45.591474 -122.594612 205 25ft 0kts
25-Jan-18 20:26 45.591474 -122.594612 205 25ft 0kts
25-Jan-18 20:27 45.591474 -122.594612 205 25ft 0kts
25-Jan-18 20:28 45.591474 -122.594612 205 25ft 0kts
25-Jan-18 20:29 45.591474 -122.594612 205 25ft 0kts
25-Jan-18 20:30 45.591474 -122.594612 205 25ft 0kts
25-Jan-18 20:31 45.591474 -122.594612 205 25ft 0kts
25-Jan-18 20:32 45.591474 -122.594612 205 25ft 0kts
25-Jan-18 20:33 45.591474 -122.594612 205 25ft 0kts
25-Jan-18 20:34 45.591474 -122.594612 205 25ft 0kts
25-Jan-18 20:35 45.591474 -122.594612 205 25ft 0kts
25-Jan-18 20:36 45.591474 -122.594612 205 25ft 0kts
25-Jan-18 20:37 45.591522 -122.594580 205 25ft 2kts
25-Jan-18 20:38 45.591922 -122.594307 205 25ft 0kts
25-Jan-18 20:39 45.591922 -122.594307 205 25ft 0kts
25-Jan-18 20:40 45.591922 -122.594307 205 25ft 0kts
25-Jan-18 20:41 45.591922 -122.594307 205 25ft 0kts
25-Jan-18 20:42 45.591922 -122.594307 205 25ft 0kts
25-Jan-18 20:43 45.591922 -122.594307 205 25ft 0kts
25-Jan-18 20:44 45.591922 -122.594307 205 25ft 0kts
25-Jan-18 20:45 45.591922 -122.594307 205 25ft 0kts
25-Jan-18 20:46 45.591923 -122.594306 205 25ft 0kts
25-Jan-18 20:47 45.591933 -122.594301 205 25ft 0kts
25-Jan-18 20:48 45.591948 -122.594290 205 25ft 0kts
25-Jan-18 20:49 45.591964 -122.594280 205 25ft 0kts
25-Jan-18 20:50 45.591980 -122.594269 205 25ft 0kts
25-Jan-18 20:51 45.591997 -122.594258 205 25ft 0kts
25-Jan-18 20:52 45.592708 -122.596121 298 25ft 6kts
25-Jan-18 20:53 45.594172 -122.597136 298 25ft 11kts
25-Jan-18 20:54 45.594602 -122.597327 43 25ft 0kts
25-Jan-18 20:55 45.594602 -122.597327 43 25ft 0kts
25-Jan-18 20:56 45.594602 -122.597327 43 25ft 0kts
25-Jan-18 20:57 45.594602 -122.597327 43 25ft 0kts
25-Jan-18 20:58 45.594602 -122.597327 43 25ft 0kts
25-Jan-18 20:59 45.594602 -122.597327 43 25ft 0kts
25-Jan-18 21:00 45.594602 -122.597327 43 25ft 0kts
25-Jan-18 21:01 45.594602 -122.597327 43 25ft 0kts
25-Jan-18 21:02 45.594602 -122.597327 43 25ft 0kts
25-Jan-18 21:03 45.594602 -122.597327 43 25ft 0kts
25-Jan-18 21:04 45.594637 -122.597280 43 25ft 4kts
25-Jan-18 21:05 45.592056 -122.588544 121 26ft 108kts
25-Jan-18 21:06 45.578703 -122.533973 104 1991ft 169kts
25-Jan-18 21:07 45.566013 -122.461524 106 4528ft 195kts
25-Jan-18 21:08 45.551842 -122.381647 107 7294ft 210kts
25-Jan-18 21:09 45.523091 -122.309916 149 10000ft 206kts
25-Jan-18 21:10 45.474771 -122.259093 144 12205ft 233kts
25-Jan-18 21:11 45.419987 -122.189050 142 13053ft 284kts
25-Jan-18 21:12 45.360323 -122.112522 142 14295ft 292kts
25-Jan-18 21:13 45.299142 -122.035003 143 15431ft 298kts
25-Jan-18 21:14 45.251982 -121.936574 112 16456ft 318kts
25-Jan-18 21:15 45.221399 -121.817909 113 17406ft 323kts
25-Jan-18 21:16 45.190067 -121.697637 113 18276ft 328kts
25-Jan-18 21:17 45.157843 -121.575406 113 19057ft 333kts
25-Jan-18 21:18 45.125172 -121.452047 112 19749ft 338kts
25-Jan-18 21:19 45.092288 -121.328275 112 20687ft 331kts
25-Jan-18 21:20 45.059496 -121.205852 112 21512ft 329kts
25-Jan-18 21:21 45.027299 -121.086064 112 22414ft 326kts
25-Jan-18 21:22 44.994707 -120.965255 112 23149ft 326kts
25-Jan-18 21:23 44.962659 -120.847200 112 24069ft 321kts
25-Jan-18 21:24 44.930405 -120.728575 111 24680ft 326kts
25-Jan-18 21:25 44.897202 -120.607005 111 24991ft 340kts
25-Jan-18 21:26 44.862242 -120.479503 111 25010ft 357kts
25-Jan-18 21:27 44.825957 -120.346995 111 25005ft 368kts
25-Jan-18 21:28 44.788335 -120.210968 111 25004ft 375kts
25-Jan-18 21:29 44.750081 -120.073623 111 25003ft 380kts
25-Jan-18 21:30 44.711356 -119.935195 111 25003ft 382kts
25-Jan-18 21:31 44.672133 -119.795740 111 25002ft 384kts
25-Jan-18 21:32 44.632660 -119.656589 112 25002ft 385kts
25-Jan-18 21:33 44.591754 -119.517518 112 25001ft 385kts
25-Jan-18 21:34 44.550850 -119.378909 112 25001ft 386kts
25-Jan-18 21:35 44.510111 -119.240214 112 25001ft 386kts
25-Jan-18 21:36 44.468806 -119.101388 113 25000ft 385kts
25-Jan-18 21:37 44.427653 -118.963319 113 25000ft 385kts
25-Jan-18 21:38 44.386407 -118.825621 113 25001ft 384kts
25-Jan-18 21:39 44.344850 -118.687801 113 25002ft 384kts
25-Jan-18 21:40 44.303327 -118.550768 113 25005ft 384kts
25-Jan-18 21:41 44.261622 -118.414122 113 25009ft 383kts
25-Jan-18 21:42 44.219780 -118.277304 113 25012ft 383kts
25-Jan-18 21:43 44.177833 -118.141215 114 25015ft 383kts
25-Jan-18 21:44 44.135654 -118.004920 114 25019ft 383kts
25-Jan-18 21:45 44.093164 -117.868527 115 23904ft 381kts
25-Jan-18 21:46 44.052021 -117.736781 115 22183ft 367kts
25-Jan-18 21:47 44.011103 -117.607097 115 20484ft 368kts
25-Jan-18 21:48 43.969843 -117.476351 115 18770ft 373kts
25-Jan-18 21:49 43.927918 -117.344325 115 17001ft 376kts
25-Jan-18 21:50 43.885653 -117.211430 115 15231ft 375kts
25-Jan-18 21:51 43.844193 -117.081860 115 13513ft 354kts
25-Jan-18 21:52 43.804776 -116.959804 115 11891ft 335kts
25-Jan-18 21:53 43.768275 -116.847356 116 10396ft 309kts
25-Jan-18 21:54 43.734200 -116.741735 115 8996ft 295kts
25-Jan-18 21:55 43.701441 -116.639872 116 7640ft 275kts
25-Jan-18 21:56 43.673401 -116.552994 115 6487ft 231kts
25-Jan-18 21:57 43.647764 -116.473563 114 5416ft 225kts
25-Jan-18 21:58 43.623952 -116.395990 112 4704ft 204kts
25-Jan-18 21:59 43.601758 -116.329835 113 4046ft 175kts
25-Jan-18 22:00 43.584388 -116.278762 112 3447ft 122kts
25-Jan-18 22:01 43.570013 -116.236288 114 2869ft 119kts
25-Jan-18 22:02 43.566288 -116.223242 8 2841ft 2kts
25-Jan-18 22:03 43.566107 -116.220167 35 2841ft 5kts
25-Jan-18 22:04 43.567245 -116.220659 23 2841ft 0kts
25-Jan-18 22:05 43.567246 -116.220658 23 2841ft 0kts
25-Jan-18 22:06 43.567246 -116.220658 23 2841ft 0kts
25-Jan-18 22:07 43.567246 -116.220658 23 2841ft 0kts
25-Jan-18 22:08 43.567246 -116.220658 23 2841ft 0kts
25-Jan-18 22:09 43.567246 -116.220658 23 2841ft 0kts
25-Jan-18 22:10 43.567246 -116.220658 23 2841ft 0kts
25-Jan-18 22:11 43.567246 -116.220658 23 2841ft 0kts
25-Jan-18 22:12 43.567246 -116.220658 23 2841ft 0kts
25-Jan-18 22:13 43.567246 -116.220658 23 2841ft 0kts
25-Jan-18 22:14 43.567246 -116.220658 23 2841ft 0kts

Navigation Log

Ident Type
Flight plan parsing failed, navigation log unavailable